createdAt,value
2019-03-09T00:00:59.383Z,10.70
2019-03-09T00:01:59.364Z,9.60
2019-03-09T00:02:59.370Z,11.20
2019-03-09T00:03:59.320Z,8.90
2019-03-09T00:04:59.299Z,9.80
2019-03-09T00:05:59.278Z,11.00
2019-03-09T00:06:59.259Z,9.40
2019-03-09T00:07:59.253Z,9.10
2019-03-09T00:08:59.218Z,10.50
2019-03-09T00:09:59.208Z,12.50
2019-03-09T00:10:59.181Z,9.40
2019-03-09T00:11:59.163Z,11.80
2019-03-09T00:12:59.144Z,9.70
2019-03-09T00:13:59.122Z,9.40
2019-03-09T00:14:59.095Z,12.00
2019-03-09T00:15:59.077Z,10.50
2019-03-09T00:16:59.061Z,9.90
2019-03-09T00:17:59.038Z,9.30
2019-03-09T00:18:59.020Z,8.80
2019-03-09T00:19:58.993Z,11.80
2019-03-09T00:20:58.974Z,10.00
2019-03-09T00:21:58.961Z,13.10
2019-03-09T00:22:58.934Z,9.10
2019-03-09T00:23:58.915Z,10.50
2019-03-09T00:24:58.893Z,14.70
2019-03-09T00:25:58.873Z,9.60
2019-03-09T00:26:58.856Z,15.50
2019-03-09T00:27:58.832Z,14.80
2019-03-09T00:28:58.815Z,9.60
2019-03-09T00:29:58.792Z,9.50
2019-03-09T00:30:58.771Z,10.70
2019-03-09T00:31:58.751Z,13.20
2019-03-09T00:32:58.732Z,14.00
2019-03-09T00:33:58.709Z,14.00
2019-03-09T00:34:58.689Z,10.70
2019-03-09T00:35:58.672Z,12.10
2019-03-09T00:36:58.656Z,12.80
2019-03-09T00:37:58.627Z,12.40
2019-03-09T00:38:58.633Z,13.00
2019-03-09T00:39:58.587Z,11.60
2019-03-09T00:40:58.591Z,14.60
2019-03-09T00:41:58.558Z,11.40
2019-03-09T00:42:58.531Z,11.80
2019-03-09T00:43:58.506Z,10.70
2019-03-09T00:44:58.483Z,10.60
2019-03-09T00:45:58.463Z,9.10
2019-03-09T00:46:58.448Z,13.00
2019-03-09T00:47:58.421Z,12.00
2019-03-09T00:48:58.402Z,11.40
2019-03-09T00:49:58.389Z,11.00
2019-03-09T00:50:58.361Z,11.80
2019-03-09T00:51:58.341Z,11.10
2019-03-09T00:52:58.320Z,11.10
2019-03-09T00:53:58.304Z,10.60
2019-03-09T00:54:58.289Z,14.30
2019-03-09T00:55:58.264Z,13.10
2019-03-09T00:56:58.236Z,8.80
2019-03-09T00:57:58.218Z,12.30
2019-03-09T00:58:58.201Z,13.00
2019-03-09T00:59:58.196Z,13.90
2019-03-09T01:00:58.158Z,11.50
2019-03-09T01:01:58.143Z,12.00
2019-03-09T01:02:58.116Z,12.40
2019-03-09T01:03:58.094Z,10.00
2019-03-09T01:04:58.078Z,12.70
2019-03-09T01:05:58.054Z,9.50
2019-03-09T01:06:58.033Z,8.30
2019-03-09T01:07:58.017Z,11.90
2019-03-09T01:08:57.992Z,9.50
2019-03-09T01:09:57.973Z,10.20
2019-03-09T01:10:57.997Z,8.40
2019-03-09T01:11:57.931Z,11.60
2019-03-09T01:12:57.915Z,11.00
2019-03-09T01:13:57.889Z,12.00
2019-03-09T01:14:57.876Z,14.60
2019-03-09T01:15:57.851Z,11.00
2019-03-09T01:16:57.831Z,9.80
2019-03-09T01:17:57.812Z,11.30
2019-03-09T01:18:57.790Z,12.50
2019-03-09T01:19:57.781Z,13.90
2019-03-09T01:20:57.750Z,10.90
2019-03-09T01:21:57.726Z,8.60
2019-03-09T01:22:57.716Z,8.50
2019-03-09T01:23:57.692Z,13.20
2019-03-09T01:24:57.662Z,11.50
2019-03-09T01:25:57.641Z,10.60
2019-03-09T01:26:57.622Z,7.20
2019-03-09T01:27:57.606Z,12.50
2019-03-09T01:28:57.599Z,11.00
2019-03-09T01:29:57.563Z,9.30
2019-03-09T01:30:57.541Z,9.10
2019-03-09T01:31:57.518Z,8.00
2019-03-09T01:32:57.497Z,11.50
2019-03-09T01:33:57.477Z,11.30
2019-03-09T01:34:57.458Z,9.90
2019-03-09T01:35:57.437Z,13.70
2019-03-09T01:36:57.413Z,10.20
2019-03-09T01:37:57.393Z,9.60
2019-03-09T01:38:57.372Z,8.90
2019-03-09T01:39:57.353Z,9.60
2019-03-09T01:40:57.331Z,10.60
2019-03-09T01:41:57.310Z,11.80
2019-03-09T01:42:57.290Z,11.80
2019-03-09T01:43:57.268Z,13.20
2019-03-09T01:44:57.248Z,9.90
2019-03-09T01:45:57.227Z,9.60
2019-03-09T01:46:57.207Z,13.00
2019-03-09T01:47:57.185Z,11.60
2019-03-09T01:48:57.166Z,8.20
2019-03-09T01:49:57.145Z,9.70
2019-03-09T01:50:57.128Z,14.90
2019-03-09T01:51:57.101Z,15.50
2019-03-09T01:52:57.085Z,11.10
2019-03-09T01:53:57.066Z,10.40
2019-03-09T01:54:57.039Z,10.20
2019-03-09T01:55:57.020Z,8.80
2019-03-09T01:56:57.002Z,8.00
2019-03-09T01:57:56.979Z,11.40
2019-03-09T01:58:56.955Z,9.10
2019-03-09T01:59:56.936Z,10.30
2019-03-09T02:00:56.924Z,11.10
2019-03-09T02:01:56.895Z,8.60
2019-03-09T02:02:56.894Z,8.10
2019-03-09T02:03:56.857Z,9.80
2019-03-09T02:04:56.839Z,11.80
2019-03-09T02:05:56.811Z,10.70
2019-03-09T02:06:56.793Z,11.30
2019-03-09T02:07:56.780Z,9.90
2019-03-09T02:08:56.748Z,8.60
2019-03-09T02:09:56.729Z,11.10
2019-03-09T02:10:56.710Z,11.40
2019-03-09T02:11:56.687Z,9.60
2019-03-09T02:12:56.672Z,11.00
2019-03-09T02:13:56.645Z,13.30
2019-03-09T02:14:56.624Z,8.80
2019-03-09T02:15:56.604Z,11.00
2019-03-09T02:16:56.580Z,10.50
2019-03-09T02:17:56.563Z,10.20
2019-03-09T02:18:56.541Z,8.70
2019-03-09T02:19:56.520Z,10.30
2019-03-09T02:20:56.498Z,9.40
2019-03-09T02:21:56.479Z,9.60
2019-03-09T02:22:56.459Z,8.90
2019-03-09T02:23:56.439Z,10.70
2019-03-09T02:24:56.421Z,10.30
2019-03-09T02:25:56.399Z,10.70
2019-03-09T02:26:56.376Z,9.90
2019-03-09T02:27:56.353Z,9.50
2019-03-09T02:28:56.381Z,10.50
2019-03-09T02:29:56.312Z,9.50
2019-03-09T02:30:56.309Z,9.50
2019-03-09T02:31:56.314Z,8.50
2019-03-09T02:32:56.248Z,9.80
2019-03-09T02:33:56.227Z,7.40
2019-03-09T02:34:56.207Z,6.90
2019-03-09T02:35:56.186Z,8.50
2019-03-09T02:36:56.171Z,7.20
2019-03-09T02:37:56.151Z,9.10
2019-03-09T02:38:56.129Z,8.70
2019-03-09T02:39:56.102Z,9.80
2019-03-09T02:40:56.089Z,7.50
2019-03-09T02:41:56.072Z,12.10
2019-03-09T02:42:56.084Z,9.10
2019-03-09T02:43:56.048Z,7.70
2019-03-09T02:44:56.000Z,8.60
2019-03-09T02:45:55.981Z,7.10
2019-03-09T02:46:55.965Z,10.10
2019-03-09T02:47:55.952Z,7.70
2019-03-09T02:48:55.926Z,10.20
2019-03-09T02:49:55.894Z,8.80
2019-03-09T02:50:55.876Z,8.90
2019-03-09T02:51:55.858Z,8.40
2019-03-09T02:52:55.831Z,8.20
2019-03-09T02:53:55.812Z,8.50
2019-03-09T02:54:55.790Z,8.40
2019-03-09T02:55:55.767Z,8.20
2019-03-09T02:56:55.750Z,9.90
2019-03-09T02:57:55.734Z,9.40
2019-03-09T02:58:55.706Z,8.30
2019-03-09T02:59:55.692Z,7.40
2019-03-09T03:00:55.664Z,11.50
2019-03-09T03:01:55.648Z,8.60
2019-03-09T03:02:55.642Z,9.40
2019-03-09T03:03:55.603Z,8.80
2019-03-09T03:04:55.583Z,9.50
2019-03-09T03:05:55.569Z,9.90
2019-03-09T03:06:55.539Z,11.10
2019-03-09T03:07:55.523Z,9.60
2019-03-09T03:08:55.498Z,9.50
2019-03-09T03:09:55.490Z,9.20
2019-03-09T03:10:55.460Z,8.70
2019-03-09T03:11:55.435Z,8.70
2019-03-09T03:12:55.417Z,8.10
2019-03-09T03:13:55.395Z,9.20
2019-03-09T03:14:55.373Z,10.10
2019-03-09T03:15:55.352Z,12.00
2019-03-09T03:16:55.334Z,8.60
2019-03-09T03:17:55.307Z,8.60
2019-03-09T03:18:55.316Z,8.50
2019-03-09T03:19:55.265Z,9.00
2019-03-09T03:20:55.249Z,8.50
2019-03-09T03:21:55.224Z,9.10
2019-03-09T03:22:55.203Z,8.50
2019-03-09T03:23:55.187Z,9.60
2019-03-09T03:24:55.167Z,9.10
2019-03-09T03:25:55.138Z,9.50
2019-03-09T03:26:55.119Z,10.40
2019-03-09T03:27:55.097Z,9.70
2019-03-09T03:28:55.081Z,9.90
2019-03-09T03:29:55.056Z,10.30
2019-03-09T03:30:55.048Z,10.00
2019-03-09T03:31:55.028Z,10.90
2019-03-09T03:32:54.995Z,10.60
2019-03-09T03:33:54.977Z,10.30
2019-03-09T03:34:54.960Z,12.00
2019-03-09T03:35:54.937Z,10.70
2019-03-09T03:36:54.913Z,11.70
2019-03-09T03:37:54.888Z,9.40
2019-03-09T03:38:54.870Z,10.30
2019-03-09T03:39:54.846Z,11.00
2019-03-09T03:40:54.834Z,10.40
2019-03-09T03:41:54.805Z,10.60
2019-03-09T03:42:54.786Z,10.20
2019-03-09T03:43:54.765Z,11.20
2019-03-09T03:44:54.743Z,11.80
2019-03-09T03:45:54.724Z,12.40
2019-03-09T03:46:54.700Z,11.20
2019-03-09T03:47:54.686Z,11.10
2019-03-09T03:48:54.659Z,10.90
2019-03-09T03:49:54.642Z,11.00
2019-03-09T03:50:54.619Z,11.20
2019-03-09T03:51:54.601Z,10.40
2019-03-09T03:52:54.581Z,10.20
2019-03-09T03:53:54.556Z,10.40
2019-03-09T03:54:54.543Z,9.80
2019-03-09T03:55:54.519Z,9.70
2019-03-09T03:56:54.495Z,10.70
2019-03-09T03:57:54.482Z,9.30
2019-03-09T03:58:54.455Z,9.50
2019-03-09T03:59:54.439Z,9.60
2019-03-09T04:00:54.409Z,9.10
2019-03-09T04:01:54.399Z,9.30
2019-03-09T04:02:54.372Z,8.20
2019-03-09T04:03:54.348Z,8.70
2019-03-09T04:04:54.347Z,9.00
2019-03-09T04:05:54.308Z,8.20
2019-03-09T04:06:54.295Z,8.40
2019-03-09T04:07:54.273Z,9.20
2019-03-09T04:08:54.245Z,7.80
2019-03-09T04:09:54.236Z,7.60
2019-03-09T04:10:54.212Z,7.90
2019-03-09T04:11:54.185Z,8.30
2019-03-09T04:12:54.164Z,6.30
2019-03-09T04:13:54.141Z,6.80
2019-03-09T04:14:54.123Z,6.40
2019-03-09T04:15:54.101Z,6.90
2019-03-09T04:16:54.089Z,7.20
2019-03-09T04:17:54.058Z,7.00
2019-03-09T04:18:54.038Z,7.60
2019-03-09T04:19:54.022Z,6.50
2019-03-09T04:20:54.000Z,7.10
2019-03-09T04:21:53.979Z,6.30
2019-03-09T04:22:53.961Z,5.80
2019-03-09T04:23:53.938Z,6.20
2019-03-09T04:24:53.912Z,6.80
2019-03-09T04:25:53.898Z,5.50
2019-03-09T04:26:53.873Z,7.80
2019-03-09T04:27:53.850Z,5.70
2019-03-09T04:28:53.830Z,6.10
2019-03-09T04:29:53.811Z,6.70
2019-03-09T04:30:53.791Z,6.80
2019-03-09T04:31:53.774Z,6.40
2019-03-09T04:32:53.755Z,6.20
2019-03-09T04:33:53.729Z,6.20
2019-03-09T04:34:53.714Z,6.60
2019-03-09T04:35:53.685Z,5.80
2019-03-09T04:36:53.666Z,6.30
2019-03-09T04:37:53.653Z,6.30
2019-03-09T04:38:53.624Z,7.10
2019-03-09T04:39:53.604Z,6.30
2019-03-09T04:40:53.584Z,5.90
2019-03-09T04:41:53.564Z,5.70
2019-03-09T04:42:53.544Z,6.00
2019-03-09T04:43:53.522Z,5.50
2019-03-09T04:44:53.501Z,5.30
2019-03-09T04:45:53.481Z,5.80
2019-03-09T04:46:53.460Z,5.30
2019-03-09T04:47:53.440Z,5.90
2019-03-09T04:48:53.423Z,6.00
2019-03-09T04:49:53.405Z,5.50
2019-03-09T04:50:53.379Z,6.00
2019-03-09T04:51:53.358Z,6.60
2019-03-09T04:52:53.337Z,6.30
2019-03-09T04:53:53.316Z,6.00
2019-03-09T04:54:53.303Z,6.60
2019-03-09T04:55:53.287Z,6.90
2019-03-09T04:56:53.259Z,6.50
2019-03-09T04:57:53.246Z,8.00
2019-03-09T04:58:53.218Z,6.60
2019-03-09T04:59:53.197Z,6.70
2019-03-09T05:00:53.184Z,6.10
2019-03-09T05:01:53.159Z,6.40
2019-03-09T05:02:53.138Z,6.50
2019-03-09T05:03:53.115Z,6.50
2019-03-09T05:04:53.098Z,6.80
2019-03-09T05:05:53.085Z,7.10
2019-03-09T05:06:53.062Z,7.60
2019-03-09T05:07:53.037Z,7.10
2019-03-09T05:08:53.015Z,7.00
2019-03-09T05:09:52.993Z,8.60
2019-03-09T05:10:52.976Z,7.40
2019-03-09T05:11:52.952Z,8.20
2019-03-09T05:12:52.933Z,7.10
2019-03-09T05:13:52.913Z,7.70
2019-03-09T05:14:52.891Z,7.30
2019-03-09T05:15:52.867Z,7.70
2019-03-09T05:16:52.849Z,7.80
2019-03-09T05:17:52.829Z,8.10
2019-03-09T05:18:52.812Z,8.60
2019-03-09T05:19:52.787Z,7.70
2019-03-09T05:20:52.766Z,8.00
2019-03-09T05:21:52.749Z,8.60
2019-03-09T05:22:52.730Z,8.50
2019-03-09T05:23:52.706Z,8.50
2019-03-09T05:24:52.692Z,8.10
2019-03-09T05:25:52.666Z,7.90
2019-03-09T05:26:52.648Z,8.30
2019-03-09T05:27:52.627Z,8.50
2019-03-09T05:28:52.605Z,8.00
2019-03-09T05:29:52.591Z,8.70
2019-03-09T05:30:52.567Z,9.70
2019-03-09T05:31:52.546Z,9.30
2019-03-09T05:32:52.530Z,8.10
2019-03-09T05:33:52.505Z,9.10
2019-03-09T05:34:52.483Z,9.40
2019-03-09T05:35:52.467Z,8.80
2019-03-09T05:36:52.442Z,8.20
2019-03-09T05:37:52.421Z,8.30
2019-03-09T05:38:52.401Z,8.90
2019-03-09T05:39:52.379Z,10.10
2019-03-09T05:40:52.359Z,9.20
2019-03-09T05:41:52.342Z,8.40
2019-03-09T05:42:52.320Z,9.40
2019-03-09T05:43:52.299Z,9.90
2019-03-09T05:44:52.281Z,10.20
2019-03-09T05:45:52.263Z,8.90
2019-03-09T05:46:52.240Z,7.90
2019-03-09T05:47:52.220Z,9.40
2019-03-09T05:48:52.200Z,8.90
2019-03-09T05:49:52.176Z,9.80
2019-03-09T05:50:52.157Z,9.90
2019-03-09T05:51:52.139Z,9.30
2019-03-09T05:52:52.122Z,10.70
2019-03-09T05:53:52.102Z,10.40
2019-03-09T05:54:52.076Z,10.40
2019-03-09T05:55:52.057Z,9.70
2019-03-09T05:56:52.044Z,10.00
2019-03-09T05:57:52.024Z,9.50
2019-03-09T05:58:51.995Z,11.30
2019-03-09T05:59:51.973Z,9.90
2019-03-09T06:00:51.955Z,9.80
2019-03-09T06:01:51.935Z,11.70
2019-03-09T06:02:51.924Z,10.50
2019-03-09T06:03:51.896Z,9.30
2019-03-09T06:04:51.871Z,9.90
2019-03-09T06:05:51.852Z,11.20
2019-03-09T06:06:51.836Z,13.50
2019-03-09T06:07:51.811Z,12.40
2019-03-09T06:08:51.794Z,12.30
2019-03-09T06:09:51.771Z,12.30
2019-03-09T06:10:51.763Z,11.60
2019-03-09T06:11:51.731Z,11.70
2019-03-09T06:12:51.715Z,11.50
2019-03-09T06:13:51.693Z,10.60
2019-03-09T06:14:51.667Z,12.10
2019-03-09T06:15:51.650Z,11.10
2019-03-09T06:16:51.630Z,11.20
2019-03-09T06:17:51.609Z,13.50
2019-03-09T06:18:51.591Z,12.80
2019-03-09T06:19:51.569Z,14.20
2019-03-09T06:20:51.548Z,13.90
2019-03-09T06:21:51.529Z,12.70
2019-03-09T06:22:51.507Z,11.30
2019-03-09T06:23:51.490Z,11.60
2019-03-09T06:24:51.469Z,12.20
2019-03-09T06:25:51.473Z,12.70
2019-03-09T06:26:51.427Z,14.70
2019-03-09T06:27:51.405Z,12.00
2019-03-09T06:28:51.392Z,11.20
2019-03-09T06:29:51.366Z,14.30
2019-03-09T06:30:51.347Z,12.40
2019-03-09T06:31:51.324Z,11.70
2019-03-09T06:32:51.309Z,11.80
2019-03-09T06:33:51.295Z,12.80
2019-03-09T06:34:51.272Z,12.70
2019-03-09T06:35:51.244Z,11.60
2019-03-09T06:36:51.235Z,12.10
2019-03-09T06:37:51.210Z,13.20
2019-03-09T06:38:51.185Z,10.60
2019-03-09T06:39:51.181Z,12.70
2019-03-09T06:40:51.145Z,10.00
2019-03-09T06:41:51.150Z,12.00
2019-03-09T06:42:51.106Z,13.40
2019-03-09T06:43:51.097Z,11.50
2019-03-09T06:44:51.066Z,12.90
2019-03-09T06:45:51.049Z,11.00
2019-03-09T06:46:51.027Z,10.60
2019-03-09T06:47:51.004Z,15.20
2019-03-09T06:48:50.987Z,14.20
2019-03-09T06:49:50.967Z,11.80
2019-03-09T06:50:50.955Z,9.80
2019-03-09T06:51:50.935Z,10.60
2019-03-09T06:52:50.907Z,13.00
2019-03-09T06:53:50.891Z,11.10
2019-03-09T06:54:50.874Z,11.10
2019-03-09T06:55:50.854Z,11.60
2019-03-09T06:56:50.830Z,13.10
2019-03-09T06:57:50.811Z,11.40
2019-03-09T06:58:50.796Z,10.40
2019-03-09T06:59:50.773Z,10.80
2019-03-09T07:00:50.750Z,10.10
2019-03-09T07:01:50.732Z,9.70
2019-03-09T07:02:50.709Z,10.30
2019-03-09T07:03:50.695Z,11.30
2019-03-09T07:04:50.680Z,12.30
2019-03-09T07:05:50.656Z,11.00
2019-03-09T07:06:50.635Z,11.60
2019-03-09T07:07:50.622Z,10.90
2019-03-09T07:08:50.593Z,9.80
2019-03-09T07:09:50.574Z,14.10
2019-03-09T07:10:50.555Z,11.80
2019-03-09T07:11:50.536Z,9.10
2019-03-09T07:12:50.516Z,12.50
2019-03-09T07:13:53.134Z,11.70
2019-03-09T07:14:50.475Z,9.30
2019-03-09T07:15:50.465Z,8.10
2019-03-09T07:16:50.441Z,8.60
2019-03-09T07:17:50.426Z,8.40
2019-03-09T07:18:50.404Z,8.30
2019-03-09T07:19:50.386Z,9.30
2019-03-09T07:20:50.369Z,12.20
2019-03-09T07:21:50.363Z,8.10
2019-03-09T07:22:50.333Z,9.50
2019-03-09T07:23:50.322Z,8.30
2019-03-09T07:24:50.318Z,8.80
2019-03-09T07:25:50.285Z,10.40
2019-03-09T07:26:50.268Z,9.20
2019-03-09T07:27:50.257Z,8.40
2019-03-09T07:28:50.247Z,8.10
2019-03-09T07:29:50.220Z,9.80
2019-03-09T07:30:50.205Z,7.20
2019-03-09T07:31:50.189Z,7.60
2019-03-09T07:32:50.172Z,9.90
2019-03-09T07:33:50.156Z,9.60
2019-03-09T07:34:50.148Z,10.10
2019-03-09T07:35:50.132Z,8.70
2019-03-09T07:36:50.106Z,9.40
2019-03-09T07:37:50.094Z,9.20
2019-03-09T07:38:50.077Z,11.00
2019-03-09T07:39:50.058Z,9.90
2019-03-09T07:40:50.043Z,8.80
2019-03-09T07:41:50.033Z,9.50
2019-03-09T07:42:50.014Z,7.70
2019-03-09T07:43:49.994Z,9.90
2019-03-09T07:44:49.977Z,7.80
2019-03-09T07:45:49.963Z,10.40
2019-03-09T07:46:49.948Z,9.50
2019-03-09T07:47:49.932Z,9.80
2019-03-09T07:48:49.911Z,10.20
2019-03-09T07:49:49.899Z,10.80
2019-03-09T07:50:49.876Z,10.60
2019-03-09T07:51:49.861Z,8.80
2019-03-09T07:52:49.840Z,11.10
2019-03-09T07:53:49.829Z,9.20
2019-03-09T07:54:49.809Z,10.90
2019-03-09T07:55:49.788Z,10.40
2019-03-09T07:56:49.779Z,11.80
2019-03-09T07:57:49.759Z,11.50
2019-03-09T07:58:49.736Z,10.10
2019-03-09T07:59:49.716Z,8.00
2019-03-09T08:00:49.709Z,11.50
2019-03-09T08:01:49.682Z,13.10
2019-03-09T08:02:49.676Z,10.90
2019-03-09T08:03:49.650Z,10.40
2019-03-09T08:04:49.627Z,8.70
2019-03-09T08:05:49.618Z,12.70
2019-03-09T08:06:49.597Z,13.20
2019-03-09T08:07:49.583Z,10.20
2019-03-09T08:08:49.562Z,12.40
2019-03-09T08:09:49.551Z,10.80
2019-03-09T08:10:49.533Z,9.50
2019-03-09T08:11:49.512Z,8.60
2019-03-09T08:12:49.499Z,10.30
2019-03-09T08:13:49.493Z,11.30
2019-03-09T08:14:49.466Z,10.10
2019-03-09T08:15:49.437Z,11.40
2019-03-09T08:16:49.415Z,12.50
2019-03-09T08:17:49.399Z,10.40
2019-03-09T08:18:49.378Z,9.00
2019-03-09T08:19:49.374Z,13.10
2019-03-09T08:20:49.347Z,9.40
2019-03-09T08:21:49.328Z,9.80
2019-03-09T08:22:49.309Z,11.30
2019-03-09T08:23:49.299Z,9.10
2019-03-09T08:24:49.275Z,9.20
2019-03-09T08:25:49.268Z,8.80
2019-03-09T08:26:49.249Z,9.80
2019-03-09T08:27:49.235Z,12.80
2019-03-09T08:28:49.216Z,9.20
2019-03-09T08:29:49.196Z,9.90
2019-03-09T08:30:49.177Z,8.70
2019-03-09T08:31:49.173Z,9.70
2019-03-09T08:32:49.154Z,10.20
2019-03-09T08:33:49.178Z,11.80
2019-03-09T08:34:49.114Z,8.90
2019-03-09T08:35:49.094Z,16.60
2019-03-09T08:36:49.102Z,10.50
2019-03-09T08:37:49.063Z,10.90
2019-03-09T08:38:49.043Z,12.20
2019-03-09T08:39:49.029Z,11.90
2019-03-09T08:40:49.011Z,11.00
2019-03-09T08:41:48.998Z,9.90
2019-03-09T08:42:48.976Z,11.80
2019-03-09T08:43:48.963Z,15.10
2019-03-09T08:44:48.944Z,11.50
2019-03-09T08:45:48.935Z,13.60
2019-03-09T08:46:48.905Z,12.50
2019-03-09T08:47:52.402Z,10.00
2019-03-09T08:48:48.894Z,10.70
2019-03-09T08:49:48.853Z,10.40
2019-03-09T08:50:48.842Z,9.60
2019-03-09T08:51:48.827Z,15.30
2019-03-09T08:52:48.823Z,10.60
2019-03-09T08:53:48.779Z,11.90
2019-03-09T08:54:48.760Z,10.60
2019-03-09T08:55:48.745Z,10.10
2019-03-09T08:56:48.754Z,9.30
2019-03-09T08:57:48.714Z,11.90
2019-03-09T08:58:48.724Z,10.60
2019-03-09T08:59:48.692Z,13.50
2019-03-09T09:00:48.650Z,10.90
2019-03-09T09:01:48.640Z,13.90
2019-03-09T09:02:48.615Z,11.00
2019-03-09T09:03:48.597Z,10.40
2019-03-09T09:04:48.582Z,12.00
2019-03-09T09:05:48.567Z,11.40
2019-03-09T09:06:48.541Z,12.80
2019-03-09T09:07:48.523Z,13.00
2019-03-09T09:08:48.505Z,12.50
2019-03-09T09:09:48.499Z,14.80
2019-03-09T09:10:48.482Z,13.30
2019-03-09T09:11:48.461Z,11.20
2019-03-09T09:12:48.438Z,12.70
2019-03-09T09:13:48.426Z,9.80
2019-03-09T09:14:48.404Z,10.80
2019-03-09T09:15:48.381Z,12.70
2019-03-09T09:16:48.371Z,12.20
2019-03-09T09:17:48.351Z,12.60
2019-03-09T09:18:48.331Z,11.70
2019-03-09T09:19:48.312Z,12.70
2019-03-09T09:20:48.301Z,12.80
2019-03-09T09:21:48.271Z,12.10
2019-03-09T09:22:48.255Z,13.20
2019-03-09T09:23:48.236Z,11.20
2019-03-09T09:24:48.230Z,11.20
2019-03-09T09:25:48.201Z,9.60
2019-03-09T09:26:48.181Z,12.60
2019-03-09T09:27:48.165Z,15.20
2019-03-09T09:28:48.147Z,11.80
2019-03-09T09:29:48.138Z,12.80
2019-03-09T09:30:48.109Z,11.80
2019-03-09T09:31:48.087Z,13.00
2019-03-09T09:32:48.067Z,13.80
2019-03-09T09:33:48.054Z,13.60
2019-03-09T09:34:48.033Z,14.00
2019-03-09T09:35:48.014Z,14.40
2019-03-09T09:36:47.995Z,13.60
2019-03-09T09:37:47.984Z,14.00
2019-03-09T09:38:47.957Z,13.60
2019-03-09T09:39:47.943Z,13.90
2019-03-09T09:40:47.921Z,14.70
2019-03-09T09:41:47.903Z,13.40
2019-03-09T09:42:47.889Z,15.90
2019-03-09T09:43:47.865Z,13.30
2019-03-09T09:44:47.856Z,12.10
2019-03-09T09:45:47.827Z,12.90
2019-03-09T09:46:47.822Z,13.90
2019-03-09T09:47:47.793Z,12.30
2019-03-09T09:48:47.773Z,12.50
2019-03-09T09:49:47.753Z,14.50
2019-03-09T09:50:47.741Z,13.90
2019-03-09T09:51:47.725Z,12.30
2019-03-09T09:52:47.701Z,12.50
2019-03-09T09:53:47.684Z,12.80
2019-03-09T09:54:47.680Z,12.90
2019-03-09T09:55:47.656Z,11.80
2019-03-09T09:56:47.635Z,11.20
2019-03-09T09:57:47.613Z,16.30
2019-03-09T09:58:47.593Z,11.80
2019-03-09T09:59:47.575Z,12.90
2019-03-09T10:00:47.560Z,13.50
2019-03-09T10:01:47.557Z,11.60
2019-03-09T10:02:47.522Z,12.10
2019-03-09T10:03:47.506Z,15.90
2019-03-09T10:04:47.482Z,13.90
2019-03-09T10:05:47.485Z,12.60
2019-03-09T10:06:47.449Z,13.40
2019-03-09T10:07:47.439Z,12.50
2019-03-09T10:08:47.408Z,13.60
2019-03-09T10:09:47.388Z,14.80
2019-03-09T10:10:47.384Z,12.20
2019-03-09T10:11:47.356Z,11.10
2019-03-09T10:12:47.339Z,12.30
2019-03-09T10:13:47.323Z,12.90
2019-03-09T10:14:47.298Z,12.80
2019-03-09T10:15:47.295Z,12.20
2019-03-09T10:16:47.259Z,13.60
2019-03-09T10:17:47.245Z,15.50
2019-03-09T10:18:47.230Z,14.30
2019-03-09T10:19:47.210Z,12.50
2019-03-09T10:20:47.189Z,14.20
2019-03-09T10:21:47.169Z,15.70
2019-03-09T10:22:47.148Z,14.00
2019-03-09T10:23:47.142Z,13.90
2019-03-09T10:24:47.113Z,16.00
2019-03-09T10:25:47.095Z,16.10
2019-03-09T10:26:47.082Z,13.90
2019-03-09T10:27:47.062Z,12.40
2019-03-09T10:28:47.037Z,13.00
2019-03-09T10:29:47.018Z,13.30
2019-03-09T10:30:47.008Z,14.40
2019-03-09T10:31:46.979Z,15.60
2019-03-09T10:32:46.977Z,14.50
2019-03-09T10:33:46.941Z,12.60
2019-03-09T10:34:46.930Z,12.30
2019-03-09T10:35:46.905Z,13.60
2019-03-09T10:36:46.887Z,12.50
2019-03-09T10:37:46.867Z,12.30
2019-03-09T10:38:46.854Z,11.80
2019-03-09T10:39:46.832Z,12.50
2019-03-09T10:40:46.811Z,12.90
2019-03-09T10:41:46.795Z,15.00
2019-03-09T10:42:46.775Z,13.90
2019-03-09T10:43:46.756Z,11.60
2019-03-09T10:44:46.747Z,11.20
2019-03-09T10:45:46.718Z,9.10
2019-03-09T10:46:46.705Z,11.40
2019-03-09T10:47:46.688Z,11.10
2019-03-09T10:48:46.669Z,12.50
2019-03-09T10:49:46.651Z,14.90
2019-03-09T10:50:46.643Z,10.60
2019-03-09T10:51:46.615Z,13.90
2019-03-09T10:52:46.595Z,12.30
2019-03-09T10:53:46.575Z,10.70
2019-03-09T10:54:46.561Z,12.90
2019-03-09T10:55:46.543Z,11.50
2019-03-09T10:56:46.521Z,14.10
2019-03-09T10:57:46.512Z,13.50
2019-03-09T10:58:46.487Z,12.70
2019-03-09T10:59:46.468Z,12.40
2019-03-09T11:00:46.452Z,14.40
2019-03-09T11:01:46.430Z,12.50
2019-03-09T11:02:46.425Z,13.40
2019-03-09T11:03:46.403Z,10.30
2019-03-09T11:04:46.387Z,12.90
2019-03-09T11:05:46.367Z,11.40
2019-03-09T11:06:46.344Z,10.30
2019-03-09T11:07:46.325Z,11.50
2019-03-09T11:08:46.322Z,12.60
2019-03-09T11:09:46.292Z,12.40
2019-03-09T11:10:46.283Z,9.90
2019-03-09T11:11:46.257Z,11.60
2019-03-09T11:12:46.239Z,9.80
2019-03-09T11:13:51.805Z,11.20
2019-03-09T11:14:46.205Z,10.30
2019-03-09T11:15:46.213Z,9.60
2019-03-09T11:16:46.178Z,12.20
2019-03-09T11:17:46.168Z,13.20
2019-03-09T11:18:46.132Z,9.40
2019-03-09T11:19:46.115Z,10.90
2019-03-09T11:20:46.097Z,8.80
2019-03-09T11:21:46.083Z,12.20
2019-03-09T11:22:46.077Z,12.60
2019-03-09T11:23:46.150Z,9.10
2019-03-09T11:24:46.027Z,7.00
2019-03-09T11:25:46.016Z,10.60
2019-03-09T11:26:45.992Z,8.60
2019-03-09T11:27:45.981Z,9.30
2019-03-09T11:28:45.954Z,8.80
2019-03-09T11:29:45.947Z,10.50
2019-03-09T11:30:45.925Z,9.30
2019-03-09T11:31:45.910Z,10.60
2019-03-09T11:32:45.888Z,9.80
2019-03-09T11:33:45.869Z,13.00
2019-03-09T11:34:45.852Z,10.00
2019-03-09T11:35:45.834Z,10.70
2019-03-09T11:36:45.822Z,9.10
2019-03-09T11:37:45.804Z,8.20
2019-03-09T11:38:45.782Z,10.10
2019-03-09T11:39:45.779Z,11.30
2019-03-09T11:40:56.674Z,10.80
2019-03-09T11:41:45.735Z,9.60
2019-03-09T11:42:45.713Z,9.30
2019-03-09T11:43:45.708Z,9.10
2019-03-09T11:44:45.677Z,11.70
2019-03-09T11:45:45.660Z,8.70
2019-03-09T11:46:45.645Z,9.60
2019-03-09T11:47:45.625Z,9.80
2019-03-09T11:48:45.609Z,8.30
2019-03-09T11:49:45.598Z,10.40
2019-03-09T11:50:45.574Z,12.70
2019-03-09T11:51:45.554Z,16.90
2019-03-09T11:52:45.545Z,13.70
2019-03-09T11:53:45.530Z,9.70
2019-03-09T11:54:45.510Z,11.90
2019-03-09T11:55:45.498Z,10.80
2019-03-09T11:56:45.476Z,8.40
2019-03-09T11:57:45.460Z,9.10
2019-03-09T11:58:45.440Z,10.30
2019-03-09T11:59:45.422Z,8.50
2019-03-09T12:00:45.421Z,10.80
2019-03-09T12:01:45.388Z,12.60
2019-03-09T12:02:45.373Z,13.30
2019-03-09T12:03:47.284Z,13.50
2019-03-09T12:04:47.078Z,15.40
2019-03-09T12:05:45.322Z,12.90
2019-03-09T12:06:45.304Z,11.30
2019-03-09T12:07:45.286Z,10.90
2019-03-09T12:08:45.283Z,12.00
2019-03-09T12:09:45.257Z,13.10
2019-03-09T12:10:45.234Z,12.90
2019-03-09T12:11:45.222Z,11.60
2019-03-09T12:12:45.205Z,11.80
2019-03-09T12:13:45.190Z,10.60
2019-03-09T12:14:45.174Z,11.20
2019-03-09T12:15:45.152Z,11.00
2019-03-09T12:16:45.130Z,11.10
2019-03-09T12:17:45.114Z,10.30
2019-03-09T12:18:45.099Z,9.80
2019-03-09T12:19:45.079Z,12.80
2019-03-09T12:20:45.074Z,10.10
2019-03-09T12:21:45.046Z,9.10
2019-03-09T12:22:45.033Z,11.10
2019-03-09T12:23:45.016Z,9.10
2019-03-09T12:24:44.996Z,10.30
2019-03-09T12:25:44.981Z,7.50
2019-03-09T12:26:44.962Z,7.70
2019-03-09T12:27:44.946Z,9.80
2019-03-09T12:28:44.930Z,9.00
2019-03-09T12:29:44.909Z,8.20
2019-03-09T12:30:44.898Z,8.00
2019-03-09T12:31:44.883Z,9.00
2019-03-09T12:32:44.873Z,7.70
2019-03-09T12:33:44.844Z,10.70
2019-03-09T12:34:44.824Z,7.90
2019-03-09T12:35:44.827Z,7.70
2019-03-09T12:36:44.794Z,9.30
2019-03-09T12:37:44.784Z,9.70
2019-03-09T12:38:44.758Z,8.00
2019-03-09T12:39:44.747Z,7.50
2019-03-09T12:40:44.722Z,8.50
2019-03-09T12:41:44.708Z,9.80
2019-03-09T12:42:44.688Z,9.60
2019-03-09T12:43:44.671Z,7.00
2019-03-09T12:44:44.661Z,10.80
2019-03-09T12:45:44.637Z,8.60
2019-03-09T12:46:44.627Z,8.80
2019-03-09T12:47:44.602Z,10.00
2019-03-09T12:48:44.592Z,9.00
2019-03-09T12:49:44.569Z,9.10
2019-03-09T12:50:44.559Z,7.90
2019-03-09T12:51:44.542Z,10.00
2019-03-09T12:52:44.517Z,9.70
2019-03-09T12:53:44.498Z,8.80
2019-03-09T12:54:44.488Z,7.70
2019-03-09T12:55:44.518Z,9.90
2019-03-09T12:56:44.456Z,8.20
2019-03-09T12:57:44.434Z,7.10
2019-03-09T12:58:46.178Z,9.70
2019-03-09T12:59:44.396Z,11.40
2019-03-09T13:00:44.382Z,8.20
2019-03-09T13:01:44.366Z,11.70
2019-03-09T13:02:44.342Z,11.00
2019-03-09T13:03:44.327Z,10.10